Albelo Primero — ECMU — position and weather

sailwx.info

Track history (hours):
 
Tides and Currents Weather Stations Pressure Air Temp Water Temp Dewpoint Dewpoint Depression Visibility Wind Speed Wind Dir Waves Ship Positions

Albelo Primero

Last reported at 2018-May-19 01:58 UTC. Time now 2018-May-20 22:56 UTC.
Position N 49°01' W 010°54'.

Length 32 m; draft 3.5 m.

Type: Fishing. MMSI: 225360000.

Date/timePositionNaut miles runAvg speedWind from/ knotsBaromVisibWave heightAir tempDewpointWater temp
2018-May-19 01:58N 49°01' W 010°54'5 2.0
2018-May-18 23:22N 49°06' W 010°51'1 1.5
2018-May-18 23:00N 49°06' W 010°51'2 1.5
2018-May-18 21:28N 49°06' W 010°47'  
2018-May-09 11:48N 43°57' W 007°40'3 9.8
2018-May-09 11:29N 43°54' W 007°39'5 9.9
2018-May-09 11:00N 43°50' W 007°37'510.1
2018-May-09 10:30N 43°45' W 007°36'4 8.1
2018-May-09 10:00N 43°41' W 007°36'0 0.3
2018-May-09 09:30N 43°41' W 007°36'0 0.0
2018-May-09 09:00N 43°41' W 007°36'0 0.0
2018-May-09 08:30N 43°41' W 007°36'0 0.0
2018-May-09 08:00N 43°41' W 007°36'0 0.0
2018-May-09 07:30N 43°41' W 007°36'0 0.0
2018-May-09 07:00N 43°41' W 007°36'0 0.4
2018-May-09 06:30N 43°41' W 007°36'0 0.0
2018-May-09 06:00N 43°41' W 007°36'0 0.0
2018-May-09 05:30N 43°41' W 007°36'0 0.0
2018-May-09 05:00N 43°41' W 007°36'0 0.0
2018-May-09 04:30N 43°41' W 007°36'0 0.0
2018-May-09 04:00N 43°41' W 007°36'0 0.0
2018-May-09 03:30N 43°41' W 007°36'0 0.0
2018-May-09 02:58N 43°41' W 007°36'0 0.0
2018-May-09 02:30N 43°41' W 007°36'0 0.0
2018-May-09 02:00N 43°41' W 007°36'  
Track history (hours):
 
Tides and Currents Weather Stations Pressure Air Temp Water Temp Dewpoint Dewpoint Depression Visibility Wind Speed Wind Dir Waves Ship Positions

Albelo Primero

Last reported at 2018-May-19 01:58 UTC. Time now 2018-May-20 22:56 UTC.
Position N 49°01' W 010°54'.

Length 32 m; draft 3.5 m.

Type: Fishing. MMSI: 225360000.

Date/timePositionNaut miles runAvg speedWind from/ knotsBaromVisibWave heightAir tempDewpointWater temp
2018-May-19 01:58N 49°01' W 010°54'5 2.0
2018-May-18 23:22N 49°06' W 010°51'1 1.5
2018-May-18 23:00N 49°06' W 010°51'2 1.5
2018-May-18 21:28N 49°06' W 010°47'  
2018-May-09 11:48N 43°57' W 007°40'3 9.8
2018-May-09 11:29N 43°54' W 007°39'5 9.9
2018-May-09 11:00N 43°50' W 007°37'510.1
2018-May-09 10:30N 43°45' W 007°36'4 8.1
2018-May-09 10:00N 43°41' W 007°36'0 0.3
2018-May-09 09:30N 43°41' W 007°36'0 0.0
2018-May-09 09:00N 43°41' W 007°36'0 0.0
2018-May-09 08:30N 43°41' W 007°36'0 0.0
2018-May-09 08:00N 43°41' W 007°36'0 0.0
2018-May-09 07:30N 43°41' W 007°36'0 0.0
2018-May-09 07:00N 43°41' W 007°36'0 0.4
2018-May-09 06:30N 43°41' W 007°36'0 0.0
2018-May-09 06:00N 43°41' W 007°36'0 0.0
2018-May-09 05:30N 43°41' W 007°36'0 0.0
2018-May-09 05:00N 43°41' W 007°36'0 0.0
2018-May-09 04:30N 43°41' W 007°36'0 0.0
2018-May-09 04:00N 43°41' W 007°36'0 0.0
2018-May-09 03:30N 43°41' W 007°36'0 0.0
2018-May-09 02:58N 43°41' W 007°36'0 0.0
2018-May-09 02:30N 43°41' W 007°36'0 0.0
2018-May-09 02:00N 43°41' W 007°36'  

Dump ship's entire track history